Time;durP1;ratioP1;P1;durP2;ratioP2;P2;SDS_P1;SDS_P2;PMS_P1;PMS_P2;Temp;Humidity;BMP_temperature;BMP_pressure;BME280_temperature;BME280_humidity;BME280_pressure;Samples;Min_cycle;Max_cycle;Signal;HPM_P1;HPM_P2
2023/11/09 00:01:18;;;;;;;2.42;1.30;;;11.60;99.90;;;;;;5020253;28;20017;-72
2023/11/09 00:03:44;;;;;;;1.17;1.08;;;11.60;99.90;;;;;;5023783;28;20604;-71
2023/11/09 00:06:10;;;;;;;1.27;1.10;;;11.60;99.90;;;;;;5019471;28;20052;-71
2023/11/09 00:08:37;;;;;;;1.58;1.00;;;11.60;99.90;;;;;;5007588;28;20038;-74
2023/11/09 00:11:03;;;;;;;1.08;0.95;;;11.60;99.90;;;;;;5023139;28;20109;-71
2023/11/09 00:13:28;;;;;;;1.00;0.90;;;11.60;99.90;;;;;;5020325;28;20120;-72
2023/11/09 00:15:55;;;;;;;0.90;0.90;;;11.60;99.90;;;;;;5021364;28;20510;-72
2023/11/09 00:18:21;;;;;;;1.23;1.10;;;11.60;99.90;;;;;;5017870;28;20504;-72
2023/11/09 00:20:51;;;;;;;0.93;0.82;;;11.70;99.90;;;;;;5028403;28;20021;-72
2023/11/09 00:23:19;;;;;;;2.60;1.20;;;11.70;99.90;;;;;;5028175;28;20026;-72
2023/11/09 00:25:46;;;;;;;1.92;1.05;;;11.70;99.90;;;;;;5025252;28;20025;-72
2023/11/09 00:28:14;;;;;;;1.40;1.10;;;11.70;99.90;;;;;;5032546;28;20032;-72
2023/11/09 00:30:40;;;;;;;1.52;1.23;;;11.60;99.90;;;;;;5022966;28;20118;-73
2023/11/09 00:33:06;;;;;;;3.70;1.20;;;11.60;99.90;;;;;;5026097;28;20038;-75
2023/11/09 00:35:32;;;;;;;1.95;1.00;;;11.60;99.90;;;;;;5019952;28;20496;-72
2023/11/09 00:38:00;;;;;;;0.93;0.80;;;11.60;99.90;;;;;;5026289;28;20497;-73
2023/11/09 00:40:26;;;;;;;1.70;0.93;;;11.50;99.90;;;;;;5026427;28;20037;-73
2023/11/09 00:42:52;;;;;;;0.82;0.82;;;11.50;99.90;;;;;;5028478;28;20146;-73
2023/11/09 00:45:18;;;;;;;2.03;0.80;;;11.60;99.90;;;;;;5024356;28;20070;-73
2023/11/09 00:47:45;;;;;;;3.25;0.88;;;11.50;99.90;;;;;;5025283;28;20034;-73
2023/11/09 00:50:11;;;;;;;2.78;0.80;;;11.60;99.90;;;;;;5029766;28;20026;-73
2023/11/09 00:52:37;;;;;;;1.67;1.00;;;11.60;99.90;;;;;;5028767;27;20018;-73
2023/11/09 00:55:04;;;;;;;1.35;0.88;;;11.60;99.90;;;;;;5029487;27;20389;-73
2023/11/09 00:57:31;;;;;;;3.15;0.93;;;11.60;99.90;;;;;;5029260;27;20036;-72
2023/11/09 00:59:58;;;;;;;2.17;1.00;;;11.70;99.90;;;;;;5031613;27;20057;-73
2023/11/09 01:02:23;;;;;;;1.67;1.20;;;11.70;99.90;;;;;;5033069;27;20029;-72
2023/11/09 01:04:49;;;;;;;6.00;1.20;;;11.70;99.90;;;;;;5019250;28;20028;-72
2023/11/09 01:07:15;;;;;;;1.98;1.02;;;11.70;99.90;;;;;;5032565;28;20686;-74
2023/11/09 01:09:40;;;;;;;1.25;0.90;;;11.80;99.90;;;;;;5026587;28;20017;-71
2023/11/09 01:12:06;;;;;;;2.47;0.95;;;11.70;99.90;;;;;;5030228;28;20697;-72
2023/11/09 01:14:32;;;;;;;0.93;0.90;;;11.70;99.90;;;;;;5029821;27;20049;-72
2023/11/09 01:16:58;;;;;;;2.67;1.20;;;11.70;99.90;;;;;;5029437;27;20466;-71
2023/11/09 01:19:24;;;;;;;1.15;1.00;;;11.60;99.90;;;;;;5027075;28;20420;-72
2023/11/09 01:21:50;;;;;;;1.15;1.00;;;11.60;99.90;;;;;;5035577;27;20033;-71
2023/11/09 01:24:17;;;;;;;1.35;1.00;;;11.70;99.90;;;;;;5031351;28;20073;-71
2023/11/09 01:26:43;;;;;;;0.80;0.75;;;11.70;99.90;;;;;;5024705;28;20048;-71
2023/11/09 01:29:11;;;;;;;2.60;1.17;;;11.70;99.90;;;;;;5027178;28;20057;-72
2023/11/09 01:31:37;;;;;;;1.90;1.02;;;11.70;99.90;;;;;;5027715;27;20022;-71
2023/11/09 01:34:03;;;;;;;1.38;0.90;;;11.70;99.90;;;;;;5030350;27;20491;-72
2023/11/09 01:36:29;;;;;;;2.42;0.93;;;11.80;99.90;;;;;;5029542;28;20030;-71
2023/11/09 01:38:55;;;;;;;2.08;1.00;;;11.80;99.90;;;;;;5031714;27;20448;-71
2023/11/09 01:41:20;;;;;;;1.30;1.20;;;11.80;99.90;;;;;;5024157;28;20556;-72
2023/11/09 01:44:00;;;;;;;2.00;1.10;;;11.80;99.90;;;;;;5028597;27;20355;-74
2023/11/09 01:46:27;;;;;;;1.48;1.00;;;11.70;99.90;;;;;;5031391;28;20027;-72
2023/11/09 01:48:55;;;;;;;2.00;0.90;;;11.70;99.90;;;;;;5021516;28;20485;-72
2023/11/09 01:51:22;;;;;;;1.83;1.42;;;11.80;99.90;;;;;;5025104;27;20032;-71
2023/11/09 01:53:48;;;;;;;1.77;1.00;;;11.80;99.90;;;;;;5033749;27;20042;-72
2023/11/09 01:56:15;;;;;;;1.27;1.17;;;11.80;99.90;;;;;;5034271;27;20097;-73
2023/11/09 01:58:44;;;;;;;2.85;1.50;;;11.80;99.90;;;;;;5030136;27;20037;-71
2023/11/09 02:01:12;;;;;;;1.30;1.00;;;11.90;99.90;;;;;;5027074;28;20021;-71
2023/11/09 02:03:38;;;;;;;2.38;1.20;;;11.70;99.90;;;;;;5026038;27;20052;-72
2023/11/09 02:06:05;;;;;;;2.35;1.42;;;11.70;99.90;;;;;;5030226;27;20062;-72
2023/11/09 02:08:32;;;;;;;2.67;1.60;;;11.70;99.90;;;;;;5030140;27;20556;-74
2023/11/09 02:10:58;;;;;;;3.15;1.63;;;11.70;99.90;;;;;;5028271;27;20057;-72
2023/11/09 02:13:24;;;;;;;3.20;1.42;;;11.80;99.90;;;;;;5024185;27;20056;-72
2023/11/09 02:15:51;;;;;;;2.65;1.45;;;11.80;99.90;;;;;;5024436;27;20113;-71
2023/11/09 02:18:18;;;;;;;3.30;1.35;;;11.80;99.90;;;;;;5025300;27;20024;-72
2023/11/09 02:20:45;;;;;;;2.95;1.70;;;11.80;99.90;;;;;;5020933;28;20030;-72
2023/11/09 02:23:15;;;;;;;2.40;1.48;;;11.80;99.90;;;;;;5016529;28;20022;-73
2023/11/09 02:25:42;;;;;;;1.70;1.42;;;11.80;99.90;;;;;;5025932;27;20013;-74
2023/11/09 02:28:07;;;;;;;2.97;1.58;;;11.80;99.90;;;;;;5030549;27;20029;-72
2023/11/09 02:30:33;;;;;;;1.83;1.65;;;11.80;99.90;;;;;;5027383;27;20018;-71
2023/11/09 02:32:59;;;;;;;5.55;1.90;;;11.80;99.90;;;;;;5022145;28;20444;-72
2023/11/09 02:35:24;;;;;;;2.17;1.67;;;11.70;99.90;;;;;;5027843;27;20465;-72
2023/11/09 02:37:50;;;;;;;3.40;2.00;;;11.70;99.90;;;;;;5033467;27;20532;-72
2023/11/09 02:40:16;;;;;;;1.90;1.70;;;11.80;99.90;;;;;;5019388;28;20036;-73
2023/11/09 02:42:41;;;;;;;2.88;1.70;;;11.80;99.90;;;;;;5025784;27;20042;-72
2023/11/09 02:45:07;;;;;;;3.55;1.90;;;11.80;99.90;;;;;;5022388;28;20029;-73
2023/11/09 02:47:33;;;;;;;4.35;1.95;;;11.90;99.90;;;;;;5019497;27;20036;-73
2023/11/09 02:49:59;;;;;;;2.53;2.13;;;11.90;99.90;;;;;;5024671;27;20038;-76
2023/11/09 02:52:24;;;;;;;2.55;2.20;;;11.90;99.90;;;;;;5026262;28;20088;-72
2023/11/09 02:54:50;;;;;;;2.42;1.80;;;11.90;99.90;;;;;;5026476;27;20030;-74
2023/11/09 02:57:16;;;;;;;4.65;2.30;;;11.90;99.90;;;;;;5022673;28;20482;-73
2023/11/09 02:59:43;;;;;;;2.70;2.28;;;12.00;99.90;;;;;;5029276;27;20104;-72
2023/11/09 03:02:09;;;;;;;5.35;2.60;;;12.00;99.90;;;;;;5025402;27;20033;-74
2023/11/09 03:04:35;;;;;;;6.90;3.03;;;12.00;99.90;;;;;;5018302;28;20036;-75
2023/11/09 03:07:00;;;;;;;4.88;2.67;;;12.00;99.90;;;;;;5020644;28;20017;-72
2023/11/09 03:09:26;;;;;;;6.65;3.38;;;12.00;99.90;;;;;;5015825;27;20034;-74
2023/11/09 03:11:52;;;;;;;4.95;3.53;;;12.00;99.90;;;;;;5026592;28;20437;-73
2023/11/09 03:14:18;;;;;;;8.18;3.78;;;12.10;99.90;;;;;;5028967;27;21538;-73
2023/11/09 03:16:45;;;;;;;6.85;3.10;;;12.10;99.90;;;;;;5026900;28;20443;-73
2023/11/09 03:19:10;;;;;;;6.15;3.47;;;12.10;99.90;;;;;;5022495;28;20112;-74
2023/11/09 03:21:36;;;;;;;6.15;3.80;;;12.10;99.90;;;;;;5028983;28;20540;-74
2023/11/09 03:24:02;;;;;;;5.15;3.33;;;12.10;99.90;;;;;;5021800;28;20052;-73
2023/11/09 03:26:28;;;;;;;4.72;3.00;;;12.10;99.90;;;;;;5029271;28;20037;-73
2023/11/09 03:28:53;;;;;;;6.05;3.65;;;12.10;99.90;;;;;;5030475;28;20029;-73
2023/11/09 03:31:19;;;;;;;5.18;3.22;;;12.00;99.90;;;;;;5033031;28;20028;-73
2023/11/09 03:33:45;;;;;;;6.22;3.22;;;12.10;99.90;;;;;;5026116;27;20120;-73
2023/11/09 03:36:17;;;;;;;8.88;3.45;;;12.10;99.90;;;;;;5029618;27;20490;-73
2023/11/09 03:38:43;;;;;;;8.75;3.30;;;12.10;99.90;;;;;;5029882;28;20101;-73
2023/11/09 03:41:10;;;;;;;6.05;3.58;;;12.20;99.90;;;;;;5020664;28;20182;-74
2023/11/09 03:43:36;;;;;;;9.73;3.95;;;12.20;99.90;;;;;;5021415;28;20073;-74
2023/11/09 03:46:03;;;;;;;7.47;4.72;;;12.30;99.90;;;;;;5018616;28;20026;-77
2023/11/09 03:48:29;;;;;;;5.25;3.50;;;12.20;99.90;;;;;;5022794;28;20021;-73
2023/11/09 03:50:54;;;;;;;6.70;3.67;;;12.20;99.90;;;;;;5020800;28;20034;-74
2023/11/09 03:53:20;;;;;;;4.95;3.72;;;12.20;99.90;;;;;;5020373;28;20034;-74
2023/11/09 03:55:46;;;;;;;6.60;3.85;;;12.20;99.90;;;;;;5024453;28;20154;-74
2023/11/09 03:58:12;;;;;;;5.90;4.07;;;12.20;99.90;;;;;;5022681;28;20057;-73
2023/11/09 04:00:38;;;;;;;6.40;3.90;;;12.20;99.90;;;;;;5024709;28;20106;-73
2023/11/09 04:03:05;;;;;;;6.63;4.13;;;12.20;99.90;;;;;;5024855;28;20082;-74
2023/11/09 04:05:31;;;;;;;6.32;3.83;;;12.20;99.90;;;;;;5023128;28;20024;-73
2023/11/09 04:07:57;;;;;;;5.68;4.43;;;12.20;99.90;;;;;;5025187;28;20508;-72
2023/11/09 04:10:22;;;;;;;8.63;4.97;;;12.20;99.90;;;;;;5027929;28;20041;-74
2023/11/09 04:12:48;;;;;;;6.22;4.03;;;12.20;99.90;;;;;;5024891;28;20517;-72
2023/11/09 04:15:14;;;;;;;8.15;4.75;;;12.20;99.90;;;;;;5023651;28;20143;-71
2023/11/09 04:17:40;;;;;;;6.05;3.78;;;12.30;99.90;;;;;;5021463;28;20022;-72
2023/11/09 04:20:09;;;;;;;5.07;4.13;;;12.30;99.90;;;;;;5024220;28;20501;-73
2023/11/09 04:22:35;;;;;;;5.18;4.68;;;12.30;99.90;;;;;;5019372;28;20052;-75
2023/11/09 04:25:01;;;;;;;7.18;4.57;;;12.30;99.90;;;;;;5025625;28;20050;-73
2023/11/09 04:27:27;;;;;;;4.90;4.50;;;12.20;99.90;;;;;;5028120;28;20025;-75
2023/11/09 04:29:54;;;;;;;4.70;4.20;;;12.30;99.90;;;;;;5022781;28;20039;-74
2023/11/09 04:32:20;;;;;;;7.70;4.10;;;12.20;99.90;;;;;;5032356;27;20101;-72
2023/11/09 04:34:46;;;;;;;4.90;3.97;;;12.20;99.90;;;;;;5028113;28;20458;-75
2023/11/09 04:37:15;;;;;;;4.90;4.40;;;12.30;99.90;;;;;;5023627;28;20026;-72
2023/11/09 04:39:42;;;;;;;6.80;4.55;;;12.30;99.90;;;;;;5028215;28;20026;-76
2023/11/09 04:42:09;;;;;;;5.85;4.47;;;12.30;99.90;;;;;;5019120;28;20022;-72
2023/11/09 04:44:39;;;;;;;5.53;4.18;;;12.30;99.90;;;;;;5024057;28;20052;-74
2023/11/09 04:47:10;;;;;;;6.32;4.60;;;12.30;99.90;;;;;;5027077;28;20083;-75
2023/11/09 04:49:45;;;;;;;6.53;4.55;;;12.40;99.90;;;;;;5026479;28;20116;-73
2023/11/09 04:52:19;;;;;;;5.18;4.65;;;12.40;99.90;;;;;;5026855;28;20500;-74
2023/11/09 04:54:45;;;;;;;5.00;4.10;;;12.40;99.90;;;;;;5029722;28;20029;-73
2023/11/09 05:07:52;;;;;;;4.85;2.95;;;12.30;99.90;;;;;;5020281;28;20586;-76
2023/11/09 05:10:18;;;;;;;3.05;2.30;;;12.40;99.90;;;;;;5028800;28;20059;-72
2023/11/09 05:12:44;;;;;;;3.45;1.70;;;12.40;99.90;;;;;;5029440;27;20029;-75
2023/11/09 05:15:10;;;;;;;2.92;2.05;;;12.40;99.90;;;;;;5023561;28;20038;-73
2023/11/09 05:17:36;;;;;;;2.13;1.40;;;12.40;99.90;;;;;;5027166;28;20082;-73
2023/11/09 05:20:05;;;;;;;4.32;1.10;;;12.30;99.90;;;;;;5026812;28;20422;-73
2023/11/09 05:22:30;;;;;;;2.88;1.70;;;12.30;99.90;;;;;;5024454;28;20028;-73
2023/11/09 05:24:56;;;;;;;3.00;1.33;;;12.30;99.90;;;;;;5022865;28;20022;-72
2023/11/09 05:27:22;;;;;;;2.30;1.20;;;12.40;99.90;;;;;;5026497;28;20026;-73
2023/11/09 05:29:48;;;;;;;5.65;1.33;;;12.30;99.90;;;;;;5020865;28;20030;-72
2023/11/09 05:32:14;;;;;;;7.90;1.67;;;12.30;99.90;;;;;;5024069;27;20137;-73
2023/11/09 05:34:40;;;;;;;4.10;1.48;;;12.40;99.90;;;;;;5022328;28;20026;-73
2023/11/09 05:37:06;;;;;;;3.15;1.50;;;12.40;99.90;;;;;;5021187;28;20104;-72
2023/11/09 05:39:32;;;;;;;3.80;1.75;;;12.40;99.90;;;;;;5025247;28;20036;-72
2023/11/09 05:41:59;;;;;;;5.97;2.20;;;12.30;99.90;;;;;;5016990;28;20018;-73
2023/11/09 05:44:26;;;;;;;2.42;1.65;;;12.40;99.90;;;;;;5017686;28;20030;-73
2023/11/09 05:46:52;;;;;;;5.07;1.92;;;12.50;99.90;;;;;;5022678;28;20419;-73
2023/11/09 05:49:17;;;;;;;4.50;2.60;;;12.30;99.90;;;;;;5025421;28;20030;-73
2023/11/09 05:51:47;;;;;;;4.60;1.98;;;12.40;99.90;;;;;;5026990;28;20034;-75
2023/11/09 05:54:14;;;;;;;5.97;2.70;;;12.40;99.90;;;;;;5018155;27;20053;-73
2023/11/09 05:56:41;;;;;;;2.88;2.28;;;12.30;99.90;;;;;;5022957;28;20029;-73
2023/11/09 05:59:09;;;;;;;3.78;2.72;;;12.30;99.90;;;;;;5025233;28;20170;-75
2023/11/09 06:01:35;;;;;;;4.53;3.10;;;12.30;99.90;;;;;;5028046;28;20758;-73
2023/11/09 06:04:03;;;;;;;4.50;2.95;;;12.40;99.90;;;;;;5018361;27;20082;-73
2023/11/09 06:06:29;;;;;;;8.68;4.38;;;12.40;99.90;;;;;;5021821;28;20025;-73
2023/11/09 06:08:55;;;;;;;7.53;4.15;;;12.40;99.90;;;;;;5017937;28;20504;-73
2023/11/09 06:11:21;;;;;;;8.18;4.60;;;12.40;99.90;;;;;;5023718;28;20022;-73
2023/11/09 06:13:48;;;;;;;8.35;4.57;;;12.40;99.90;;;;;;5023609;28;20044;-72
2023/11/09 06:16:14;;;;;;;7.28;4.55;;;12.40;99.90;;;;;;5026964;28;20061;-72
2023/11/09 06:18:40;;;;;;;9.70;4.85;;;12.40;99.90;;;;;;5023842;28;20086;-72
2023/11/09 06:21:05;;;;;;;7.50;5.35;;;12.40;99.90;;;;;;5014984;28;20042;-72
2023/11/09 06:23:31;;;;;;;8.85;5.95;;;12.30;99.90;;;;;;5024630;28;20454;-72
2023/11/09 06:25:57;;;;;;;12.55;6.00;;;12.30;99.90;;;;;;5026314;28;20029;-73
2023/11/09 06:28:23;;;;;;;11.80;6.38;;;12.30;99.90;;;;;;5026753;27;20026;-74
2023/11/09 06:30:51;;;;;;;11.50;6.53;;;12.20;99.90;;;;;;5037483;27;20029;-72
2023/11/09 06:33:19;;;;;;;16.10;7.15;;;12.30;99.90;;;;;;5023420;28;20026;-72
2023/11/09 06:35:46;;;;;;;14.95;7.45;;;12.20;99.90;;;;;;5019653;28;20041;-74
2023/11/09 06:38:19;;;;;;;12.88;7.50;;;12.20;99.90;;;;;;5028248;28;20034;-73
2023/11/09 06:40:48;;;;;;;11.65;7.05;;;12.30;99.90;;;;;;5021652;28;20030;-73
2023/11/09 06:43:14;;;;;;;13.43;7.50;;;12.20;99.90;;;;;;5025163;28;20055;-73
2023/11/09 06:45:40;;;;;;;13.48;7.72;;;12.20;99.90;;;;;;5017141;28;20105;-73
2023/11/09 06:48:06;;;;;;;20.55;8.90;;;12.20;99.90;;;;;;5029139;28;20025;-74
2023/11/09 06:50:32;;;;;;;17.25;8.38;;;12.20;99.90;;;;;;5022995;28;20397;-72
2023/11/09 06:52:58;;;;;;;23.88;9.07;;;12.20;99.90;;;;;;5016210;28;20100;-73
2023/11/09 06:55:24;;;;;;;16.48;8.90;;;12.20;99.90;;;;;;5025700;27;20368;-73
2023/11/09 06:57:53;;;;;;;17.85;8.95;;;12.30;99.90;;;;;;5020433;28;20462;-74
2023/11/09 07:00:22;;;;;;;17.88;9.70;;;12.20;99.90;;;;;;5027802;28;20370;-74
2023/11/09 07:02:49;;;;;;;21.48;8.90;;;12.20;99.90;;;;;;5020692;28;20029;-73
2023/11/09 07:05:15;;;;;;;13.80;8.10;;;12.20;99.90;;;;;;5029105;27;20041;-77
2023/11/09 07:07:41;;;;;;;17.50;8.25;;;12.20;99.90;;;;;;5026821;28;20478;-74
2023/11/09 07:10:08;;;;;;;23.83;8.90;;;12.20;99.90;;;;;;5022300;28;20101;-73
2023/11/09 07:12:35;;;;;;;19.70;9.77;;;12.20;99.90;;;;;;5019368;28;20047;-73
2023/11/09 07:15:01;;;;;;;24.75;10.07;;;12.20;99.90;;;;;;5020932;28;20030;-74
2023/11/09 07:17:27;;;;;;;16.38;8.27;;;12.20;99.90;;;;;;5029515;28;20037;-73
2023/11/09 07:19:53;;;;;;;23.13;11.40;;;12.10;99.90;;;;;;5022597;27;20034;-72
2023/11/09 07:22:20;;;;;;;26.15;8.95;;;12.20;99.90;;;;;;5026396;28;20036;-72
2023/11/09 07:24:49;;;;;;;20.13;8.60;;;12.20;99.90;;;;;;5027175;28;20022;-72
2023/11/09 07:27:16;;;;;;;20.58;8.77;;;12.20;99.90;;;;;;5024167;28;20026;-72
2023/11/09 07:29:42;;;;;;;16.80;9.10;;;12.20;99.90;;;;;;5032735;28;20036;-72
2023/11/09 07:32:07;;;;;;;20.15;9.13;;;12.20;99.90;;;;;;5032062;28;20051;-72
2023/11/09 07:34:33;;;;;;;19.42;8.35;;;12.20;99.90;;;;;;5022751;28;20229;-73
2023/11/09 07:37:03;;;;;;;19.95;8.98;;;12.10;99.90;;;;;;5027120;27;20108;-72
2023/11/09 07:39:29;;;;;;;24.40;8.77;;;12.20;99.90;;;;;;5022319;28;20035;-72
2023/11/09 07:41:59;;;;;;;18.88;8.70;;;12.20;99.90;;;;;;5021320;28;20022;-72
2023/11/09 07:44:26;;;;;;;17.67;8.55;;;12.20;99.90;;;;;;5017571;28;20038;-72
2023/11/09 07:46:53;;;;;;;21.98;8.85;;;12.20;99.90;;;;;;5015595;28;20419;-71
2023/11/09 07:49:19;;;;;;;28.95;9.43;;;12.20;99.90;;;;;;5026026;28;20030;-73
2023/11/09 07:51:45;;;;;;;26.85;9.15;;;12.10;99.90;;;;;;5027928;28;20108;-73
2023/11/09 07:54:14;;;;;;;24.92;9.13;;;12.10;99.90;;;;;;5020489;28;20033;-74
2023/11/09 07:56:40;;;;;;;22.63;8.93;;;12.20;99.90;;;;;;5020866;28;20025;-72
2023/11/09 07:59:06;;;;;;;23.48;9.35;;;12.20;99.90;;;;;;5022315;28;20029;-72
2023/11/09 08:01:32;;;;;;;21.35;8.88;;;12.20;99.90;;;;;;5019714;28;20034;-73
2023/11/09 08:03:58;;;;;;;20.35;9.00;;;12.20;99.90;;;;;;5017962;28;20066;-73
2023/11/09 08:06:24;;;;;;;20.52;9.02;;;12.20;99.90;;;;;;5017955;28;20037;-73
2023/11/09 08:08:54;;;;;;;24.40;9.48;;;12.20;99.90;;;;;;5020234;28;20083;-73
2023/11/09 08:11:20;;;;;;;24.02;8.88;;;12.20;99.90;;;;;;5021570;28;20109;-73
2023/11/09 08:13:47;;;;;;;21.65;8.98;;;12.10;99.90;;;;;;5026082;28;20113;-73
2023/11/09 08:16:13;;;;;;;22.23;9.32;;;12.10;99.90;;;;;;5026406;28;20058;-72
2023/11/09 08:18:43;;;;;;;21.35;8.82;;;12.20;99.90;;;;;;5017022;28;20033;-72
2023/11/09 08:21:09;;;;;;;22.35;8.88;;;12.10;99.90;;;;;;5040193;28;20027;-72
2023/11/09 08:23:38;;;;;;;29.40;8.70;;;12.00;99.90;;;;;;5023706;28;20014;-72
2023/11/09 08:26:04;;;;;;;20.27;7.60;;;12.00;99.90;;;;;;5020869;28;20494;-72
2023/11/09 08:28:31;;;;;;;20.48;8.30;;;12.00;99.90;;;;;;5016533;28;20026;-72
2023/11/09 08:30:58;;;;;;;25.88;9.10;;;12.00;99.90;;;;;;5023271;28;20025;-72
2023/11/09 08:33:24;;;;;;;20.70;9.07;;;12.00;99.90;;;;;;5028301;28;20266;-72
2023/11/09 08:35:53;;;;;;;18.23;8.13;;;12.00;99.90;;;;;;5026002;28;20027;-72
2023/11/09 08:38:22;;;;;;;17.65;8.18;;;12.00;99.90;;;;;;5016970;28;20022;-72
2023/11/09 08:40:49;;;;;;;23.42;9.40;;;12.00;99.90;;;;;;5022199;28;20483;-72
2023/11/09 08:43:15;;;;;;;20.42;8.10;;;12.10;99.90;;;;;;5017208;28;20439;-75
2023/11/09 08:45:42;;;;;;;31.08;10.95;;;12.00;99.90;;;;;;5020384;28;20497;-72
2023/11/09 08:48:09;;;;;;;23.92;9.85;;;12.10;99.90;;;;;;5019448;28;20029;-72
2023/11/09 08:50:38;;;;;;;24.60;10.27;;;12.00;99.90;;;;;;5019616;28;20018;-72
2023/11/09 08:53:04;;;;;;;28.42;8.88;;;12.00;99.90;;;;;;5013680;28;20386;-73
2023/11/09 08:55:31;;;;;;;20.65;9.70;;;11.90;99.90;;;;;;5023241;28;20053;-72
2023/11/09 08:58:00;;;;;;;23.02;10.50;;;11.90;99.90;;;;;;5018415;28;20044;-72
2023/11/09 09:00:30;;;;;;;28.15;8.32;;;11.90;99.90;;;;;;5013692;28;20434;-72
2023/11/09 09:02:56;;;;;;;26.05;10.07;;;11.80;99.90;;;;;;5019347;28;20026;-73
2023/11/09 09:05:24;;;;;;;23.95;9.60;;;11.90;99.90;;;;;;5024688;28;20033;-73
2023/11/09 09:07:54;;;;;;;22.90;9.07;;;12.00;99.90;;;;;;5020036;28;20038;-73
2023/11/09 09:10:21;;;;;;;23.95;9.27;;;11.90;99.90;;;;;;5019212;28;20500;-73
2023/11/09 09:12:48;;;;;;;20.48;8.55;;;12.00;99.90;;;;;;5015629;28;20052;-72
2023/11/09 09:15:16;;;;;;;28.08;9.98;;;12.00;99.90;;;;;;5027137;27;20132;-73
2023/11/09 09:17:47;;;;;;;24.55;9.20;;;12.10;99.90;;;;;;5021442;28;20072;-72
2023/11/09 09:20:15;;;;;;;27.13;10.32;;;12.10;99.90;;;;;;5024529;28;20098;-73
2023/11/09 09:22:43;;;;;;;23.98;9.75;;;12.20;99.90;;;;;;5020534;28;20054;-74
2023/11/09 09:25:12;;;;;;;24.73;8.85;;;12.20;99.90;;;;;;5032362;27;20113;-73
2023/11/09 09:27:48;;;;;;;25.77;8.95;;;12.20;99.90;;;;;;5029034;27;20022;-72
2023/11/09 09:30:18;;;;;;;19.52;7.80;;;12.20;99.90;;;;;;5018329;28;20033;-73
2023/11/09 09:32:48;;;;;;;20.73;6.60;;;12.30;99.90;;;;;;5040312;27;20077;-72
2023/11/09 09:35:14;;;;;;;22.13;7.13;;;12.30;99.90;;;;;;5025021;27;20493;-72
2023/11/09 09:37:42;;;;;;;21.85;7.53;;;12.30;99.90;;;;;;5025015;28;20021;-73
2023/11/09 09:40:19;;;;;;;19.30;7.43;;;12.30;99.90;;;;;;5029824;28;20037;-72
2023/11/09 09:42:49;;;;;;;20.50;7.35;;;12.20;99.90;;;;;;5019966;28;20082;-72
2023/11/09 09:45:18;;;;;;;21.10;7.05;;;12.40;99.90;;;;;;5024219;28;20029;-75
2023/11/09 09:47:53;;;;;;;21.10;6.75;;;12.40;99.90;;;;;;5030156;28;20029;-73
2023/11/09 09:50:24;;;;;;;18.15;5.75;;;12.50;99.90;;;;;;5019157;28;20033;-73
2023/11/09 09:52:56;;;;;;;21.80;6.82;;;12.50;99.90;;;;;;5021854;28;20022;-72
2023/11/09 09:55:24;;;;;;;25.02;6.60;;;12.30;99.90;;;;;;5016404;28;20038;-72
2023/11/09 09:57:51;;;;;;;12.20;5.18;;;12.30;99.90;;;;;;5030918;27;20032;-73
2023/11/09 10:00:26;;;;;;;15.85;5.68;;;12.30;99.90;;;;;;5020544;28;20064;-73
2023/11/09 10:02:55;;;;;;;11.20;4.78;;;12.40;99.90;;;;;;5028482;28;20064;-73
2023/11/09 10:05:24;;;;;;;20.70;5.10;;;12.50;99.90;;;;;;5015802;28;20034;-73
2023/11/09 10:08:00;;;;;;;15.93;4.72;;;12.60;99.90;;;;;;5025269;28;20036;-72
2023/11/09 10:10:27;;;;;;;17.65;5.05;;;12.80;99.90;;;;;;5020221;28;20377;-73
2023/11/09 10:12:56;;;;;;;16.23;4.38;;;12.90;99.90;;;;;;5034503;27;20044;-73
2023/11/09 10:15:24;;;;;;;11.38;4.10;;;13.00;99.90;;;;;;5024218;28;20048;-72
2023/11/09 10:17:54;;;;;;;11.43;4.45;;;13.20;99.90;;;;;;5025860;28;20481;-71
2023/11/09 10:20:20;;;;;;;19.35;4.60;;;13.30;99.90;;;;;;5033234;27;20125;-75
2023/11/09 10:22:47;;;;;;;17.02;4.45;;;13.40;99.90;;;;;;5016882;28;20666;-72
2023/11/09 10:25:17;;;;;;;15.23;4.13;;;13.40;99.90;;;;;;5020511;27;20066;-71
2023/11/09 10:27:42;;;;;;;8.82;2.97;;;13.50;99.90;;;;;;5013907;28;20030;-72
2023/11/09 10:30:09;;;;;;;13.55;2.95;;;13.40;99.90;;;;;;5022044;28;20477;-72
2023/11/09 10:32:35;;;;;;;15.27;3.25;;;13.50;99.90;;;;;;5020232;28;20851;-73
2023/11/09 10:35:05;;;;;;;9.23;3.28;;;13.60;99.90;;;;;;5024144;28;20030;-71
2023/11/09 10:37:33;;;;;;;13.02;3.15;;;13.50;99.90;;;;;;5023670;28;20485;-73
2023/11/09 10:40:04;;;;;;;14.57;3.20;;;13.40;99.90;;;;;;5022961;28;20527;-72
2023/11/09 10:42:31;;;;;;;13.75;3.33;;;13.40;99.90;;;;;;5022561;28;20049;-72
2023/11/09 10:44:59;;;;;;;10.75;3.58;;;13.50;99.90;;;;;;5018645;28;20032;-74
2023/11/09 10:47:27;;;;;;;13.30;3.70;;;13.30;99.90;;;;;;5019964;28;20484;-75
2023/11/09 10:49:53;;;;;;;12.10;3.25;;;13.20;99.90;;;;;;5022075;28;20026;-76
2023/11/09 10:52:21;;;;;;;10.93;3.15;;;13.20;99.90;;;;;;5026663;28;20039;-75
2023/11/09 10:54:54;;;;;;;18.17;4.13;;;13.20;99.90;;;;;;5021594;28;20105;-75
2023/11/09 10:57:21;;;;;;;13.68;3.13;;;13.20;99.90;;;;;;5019457;28;20029;-75
2023/11/09 10:59:49;;;;;;;11.73;3.40;;;13.20;99.90;;;;;;5019948;28;20037;-76
2023/11/09 11:02:20;;;;;;;7.72;3.38;;;13.20;99.90;;;;;;5020573;28;20542;-73
2023/11/09 11:04:50;;;;;;;14.90;3.15;;;13.30;99.90;;;;;;5019824;28;20030;-74
2023/11/09 11:07:25;;;;;;;13.77;3.22;;;13.30;99.90;;;;;;5018395;28;20492;-75
2023/11/09 11:09:56;;;;;;;20.83;3.15;;;13.20;99.90;;;;;;5021456;28;20438;-73
2023/11/09 11:12:25;;;;;;;12.13;3.15;;;13.30;99.90;;;;;;5039182;27;20105;-73
2023/11/09 11:14:54;;;;;;;10.88;3.28;;;13.20;99.90;;;;;;5020375;28;20038;-75
2023/11/09 11:17:31;;;;;;;13.93;3.30;;;13.20;99.90;;;;;;5019370;28;20026;-74
2023/11/09 11:20:09;;;;;;;15.07;2.72;;;13.20;99.90;;;;;;5018375;28;20030;-73
2023/11/09 11:22:54;;;;;;;12.88;3.38;;;13.20;99.90;;;;;;5018300;28;20037;-73
2023/11/09 11:25:42;;;;;;;16.63;3.75;;;13.20;99.90;;;;;;5016546;28;20028;-72
2023/11/09 11:28:11;;;;;;;14.57;3.55;;;13.10;99.90;;;;;;5024692;28;20535;-74
2023/11/09 11:30:39;;;;;;;14.13;3.40;;;13.20;99.90;;;;;;5018383;28;20490;-76
2023/11/09 11:33:16;;;;;;;12.60;3.10;;;13.20;99.90;;;;;;5015749;28;20049;-73
2023/11/09 11:35:55;;;;;;;13.35;3.22;;;13.30;99.90;;;;;;5018923;28;20067;-73
2023/11/09 11:38:29;;;;;;;15.43;3.50;;;13.30;99.90;;;;;;5021987;28;20386;-75
2023/11/09 11:41:22;;;;;;;17.33;3.75;;;13.20;99.90;;;;;;5027000;28;20085;-74
2023/11/09 11:43:50;;;;;;;;;;;13.20;99.90;;;;;;5021825;28;20018;-74
2023/11/09 11:46:18;;;;;;;17.83;3.20;;;13.20;99.90;;;;;;5020242;28;20745;-76
2023/11/09 11:48:53;;;;;;;17.40;3.53;;;13.30;99.90;;;;;;5011708;27;20038;-74
2023/11/09 11:51:20;;;;;;;17.30;3.67;;;13.30;99.90;;;;;;5004997;27;20037;-75
2023/11/09 11:53:52;;;;;;;11.88;3.20;;;13.20;99.90;;;;;;5024628;28;20048;-75
2023/11/09 11:56:30;;;;;;;13.27;3.08;;;13.30;99.90;;;;;;5026258;28;20021;-74
2023/11/09 11:59:00;;;;;;;13.27;3.45;;;13.50;99.90;;;;;;5020544;28;20106;-75
2023/11/09 12:01:28;;;;;;;13.18;3.25;;;13.40;99.90;;;;;;5025978;28;20053;-74
2023/11/09 12:03:58;;;;;;;19.02;3.47;;;13.40;99.90;;;;;;5021130;27;20061;-74
2023/11/09 12:06:25;;;;;;;12.57;2.85;;;13.50;99.90;;;;;;5024649;28;20022;-75
2023/11/09 12:08:53;;;;;;;16.90;3.10;;;13.50;99.90;;;;;;5016769;28;20545;-75
2023/11/09 12:11:23;;;;;;;14.88;3.58;;;13.60;99.90;;;;;;5022975;28;20355;-75
2023/11/09 12:13:56;;;;;;;19.13;3.92;;;13.40;99.90;;;;;;5020533;28;20506;-73
2023/11/09 12:16:24;;;;;;;15.43;4.00;;;13.40;99.90;;;;;;5022925;28;20028;-75
2023/11/09 12:18:52;;;;;;;15.55;3.83;;;13.40;99.90;;;;;;5026221;28;20013;-75
2023/11/09 12:21:20;;;;;;;18.50;3.42;;;13.50;99.90;;;;;;5017780;28;20037;-75
2023/11/09 12:23:53;;;;;;;20.33;4.22;;;13.50;99.90;;;;;;5027992;28;20033;-75
2023/11/09 12:26:20;;;;;;;17.02;4.30;;;13.40;99.90;;;;;;5022475;28;20009;-77
2023/11/09 12:28:49;;;;;;;17.98;3.92;;;13.40;99.90;;;;;;5026156;28;20078;-77
2023/11/09 12:31:20;;;;;;;14.90;3.83;;;13.50;99.90;;;;;;5013425;28;20026;-75
2023/11/09 12:34:07;;;;;;;17.23;4.22;;;13.50;99.90;;;;;;5020377;28;20379;-75
2023/11/09 12:36:35;;;;;;;17.70;4.85;;;13.40;99.90;;;;;;5024090;28;20066;-74
2023/11/09 12:39:14;;;;;;;18.63;4.13;;;13.50;99.90;;;;;;5016874;28;20477;-76
2023/11/09 12:41:40;;;;;;;14.23;3.13;;;13.50;99.90;;;;;;5028045;28;20496;-76
2023/11/09 12:44:08;;;;;;;18.88;3.80;;;13.50;99.90;;;;;;5029429;28;20052;-74
2023/11/09 12:46:36;;;;;;;21.48;3.42;;;13.50;99.90;;;;;;5023790;28;20030;-74
2023/11/09 12:49:07;;;;;;;17.77;3.80;;;13.50;99.90;;;;;;5028743;27;20022;-75
2023/11/09 12:51:38;;;;;;;19.30;4.43;;;13.60;99.90;;;;;;5027957;28;20057;-75
2023/11/09 12:54:03;;;;;;;19.10;3.53;;;13.40;99.90;;;;;;5022002;28;20030;-75
2023/11/09 12:56:29;;;;;;;17.25;3.92;;;13.50;99.90;;;;;;5020301;28;20043;-77